Bergen Point, New Jersey
Current Conditions -  °F | °C
As of 3:08 PM on Wednesday 26 Nov 2014 (Local Time) from KEWR Reporting Station
Moderate Rain Moderate Rain  
Wind Chill: 23°   Ceiling: 700
Heat Index: 34°   Visibility: 2mi
Dew Point: 34°   Wind: 17mph
Humidity: 100%   Direction: 20°NNE
Pressure: 29.87"   Gusts: NA
Location:  40.6645°N, 74.1108°W
Report Text: KEWR 262008Z 02015KT 2SM RA BR BKN007 OVC015 01/01 A2987 RMK AO2 SFC VIS 4 CIG 006V009 P0002
Loading
Personal Weather Stations






























Interactive Weather Map New forecast layout! Learn more

10-Day Weather Forecast

Advertisements
Track Severe Weather on mobile